Time;durP1;ratioP1;P1;durP2;ratioP2;P2;SDS_P1;SDS_P2;PMS_P1;PMS_P2;Temp;Humidity;BMP_temperature;BMP_pressure;BME280_temperature;BME280_humidity;BME280_pressure;Samples;Min_cycle;Max_cycle;Signal;HPM_P1;HPM_P2
2021/08/01 00:00:44;;;;;;;;;;;16.30;81.50;;;;;;5013286;28;19988;-86
2021/08/01 00:03:09;;;;;;;;;;;16.30;81.50;;;;;;5012588;28;19910;-86
2021/08/01 00:05:35;;;;;;;;;;;16.30;81.50;;;;;;5012548;28;19909;-86
2021/08/01 00:08:00;;;;;;;;;;;16.30;82.00;;;;;;5012594;28;19905;-86
2021/08/01 00:10:26;;;;;;;;;;;16.40;82.00;;;;;;5012621;28;19924;-86
2021/08/01 00:12:52;;;;;;;;;;;16.30;81.50;;;;;;4994911;28;19996;-86
2021/08/01 00:15:17;;;;;;;;;;;16.30;81.50;;;;;;4994225;28;20388;-86
2021/08/01 00:17:43;;;;;;;;;;;16.30;81.80;;;;;;5006541;28;20278;-86
2021/08/01 00:20:08;;;;;;;;;;;16.30;82.30;;;;;;5012430;28;20396;-86
2021/08/01 00:22:34;;;;;;;;;;;16.30;82.30;;;;;;4994895;28;19909;-86
2021/08/01 00:25:00;;;;;;;;;;;16.40;82.40;;;;;;4994882;28;19995;-86
2021/08/01 00:27:26;;;;;;;;;;;16.30;82.00;;;;;;4994378;28;19917;-86
2021/08/01 00:29:51;;;;;;;;;;;16.40;82.10;;;;;;4992528;28;20362;-86
2021/08/01 00:32:17;;;;;;;;;;;16.30;81.60;;;;;;5002340;28;20270;-86
2021/08/01 00:34:42;;;;;;;;;;;16.30;81.80;;;;;;5012211;28;19963;-86
2021/08/01 00:37:08;;;;;;;;;;;16.20;81.20;;;;;;5012472;28;20395;-86
2021/08/01 00:39:33;;;;;;;;;;;16.20;81.50;;;;;;5012555;28;19905;-87
2021/08/01 00:41:59;;;;;;;;;;;16.10;81.40;;;;;;4991191;28;19918;-86
2021/08/01 00:44:24;;;;;;;;;;;16.10;81.60;;;;;;4986586;28;19964;-87
2021/08/01 00:46:50;;;;;;;;;;;16.10;81.80;;;;;;4992509;28;20262;-86
2021/08/01 00:49:16;;;;;;;;;;;16.10;82.00;;;;;;4994624;28;19905;-86
2021/08/01 00:51:41;;;;;;;;;;;16.10;82.50;;;;;;4978401;28;20358;-86
2021/08/01 00:54:07;;;;;;;;;;;16.10;82.30;;;;;;5008890;28;19910;-87
2021/08/01 00:56:33;;;;;;;;;;;16.20;82.50;;;;;;4993848;28;20336;-87
2021/08/01 00:58:58;;;;;;;;;;;16.20;82.60;;;;;;5009687;28;19971;-86
2021/08/01 01:01:26;;;;;;;;;;;16.20;82.40;;;;;;5010827;28;19910;-86
2021/08/01 01:04:01;;;;;;;;;;;16.20;82.30;;;;;;5012513;28;20048;-87
2021/08/01 01:06:45;;;;;;;;;;;16.20;82.30;;;;;;5011850;28;20420;-86
2021/08/01 01:09:22;;;;;;;;;;;16.20;82.20;;;;;;5011911;28;19997;-86
2021/08/01 01:11:48;;;;;;;;;;;16.20;82.20;;;;;;4993766;28;19910;-86
2021/08/01 01:14:16;;;;;;;;;;;16.20;82.30;;;;;;4989890;28;19917;-88
2021/08/01 01:16:44;;;;;;;;;;;16.20;82.00;;;;;;5009156;28;20004;-86
2021/08/01 01:19:12;;;;;;;;;;;16.20;81.60;;;;;;5012138;28;19917;-86
2021/08/01 01:21:37;;;;;;;;;;;16.10;81.50;;;;;;5010082;28;19909;-86
2021/08/01 01:24:06;;;;;;;;;;;16.10;81.60;;;;;;4991138;28;19963;-86
2021/08/01 01:26:36;;;;;;;;;;;16.00;82.10;;;;;;5011164;28;19909;-86
2021/08/01 01:29:02;;;;;;;;;;;16.00;82.40;;;;;;4990532;28;19944;-86
2021/08/01 01:31:27;;;;;;;;;;;16.00;82.20;;;;;;5010728;28;19960;-87
2021/08/01 01:34:03;;;;;;;;;;;16.00;82.30;;;;;;5012244;28;19928;-84
2021/08/01 01:36:29;;;;;;;;;;;16.00;82.00;;;;;;5011729;28;20278;-86
2021/08/01 01:38:55;;;;;;;;;;;16.00;82.00;;;;;;5015377;28;19909;-86
2021/08/01 01:41:22;;;;;;;;;;;15.90;81.80;;;;;;5015025;28;19905;-86
2021/08/01 01:43:47;;;;;;;;;;;15.90;82.00;;;;;;5015308;28;19917;-88
2021/08/01 01:46:13;;;;;;;;;;;15.90;82.00;;;;;;4997788;28;19906;-87
2021/08/01 01:48:39;;;;;;;;;;;15.90;82.60;;;;;;5015686;28;20014;-88
2021/08/01 01:51:05;;;;;;;;;;;15.80;82.50;;;;;;4987539;28;19906;-88
2021/08/01 01:53:31;;;;;;;;;;;15.80;82.30;;;;;;4989090;28;19910;-87
2021/08/01 01:55:56;;;;;;;;;;;15.80;82.50;;;;;;4996923;28;20309;-87
2021/08/01 01:58:22;;;;;;;;;;;15.80;82.40;;;;;;5015236;28;19915;-86
2021/08/01 02:00:47;;;;;;;;;;;15.70;82.30;;;;;;5015521;28;19964;-87
2021/08/01 02:03:13;;;;;;;;;;;15.80;82.80;;;;;;5014648;28;20378;-87
2021/08/01 02:05:40;;;;;;;;;;;15.80;83.00;;;;;;5014834;28;19909;-87
2021/08/01 02:08:06;;;;;;;;;;;15.80;82.60;;;;;;5014588;28;20427;-87
2021/08/01 02:10:34;;;;;;;;;;;15.80;82.70;;;;;;5014430;28;19913;-87
2021/08/01 02:13:02;;;;;;;;;;;15.80;82.80;;;;;;5015304;28;19906;-87
2021/08/01 02:15:49;;;;;;;;;;;15.80;83.10;;;;;;5014486;28;19967;-87
2021/08/01 02:18:19;;;;;;;;;;;15.80;82.70;;;;;;5014662;28;19972;-89
2021/08/01 02:20:46;;;;;;;;;;;15.80;82.50;;;;;;5014502;28;20281;-87
2021/08/01 02:23:15;;;;;;;;;;;15.80;82.40;;;;;;5014465;28;19910;-84
2021/08/01 02:25:41;;;;;;;;;;;15.80;82.60;;;;;;4996999;28;19918;-87
2021/08/01 02:28:07;;;;;;;;;;;15.70;82.50;;;;;;4997133;28;19912;-86
2021/08/01 02:30:33;;;;;;;;;;;15.70;82.30;;;;;;4996873;28;19920;-84
2021/08/01 02:32:59;;;;;;;;;;;15.70;82.60;;;;;;4996644;28;19909;-85
2021/08/01 02:35:24;;;;;;;;;;;15.70;82.80;;;;;;5014204;28;20392;-85
2021/08/01 02:37:52;;;;;;;;;;;15.60;82.50;;;;;;5014134;28;19910;-85
2021/08/01 02:40:18;;;;;;;;;;;15.50;82.50;;;;;;5014510;28;20362;-86
2021/08/01 02:42:44;;;;;;;;;;;15.50;82.90;;;;;;5014546;28;19924;-86
2021/08/01 02:45:10;;;;;;;;;;;15.50;83.40;;;;;;5014003;28;20435;-86
2021/08/01 02:47:36;;;;;;;;;;;15.50;83.50;;;;;;5014149;28;19909;-85
2021/08/01 02:50:03;;;;;;;;;;;15.50;83.60;;;;;;4994998;28;19952;-86
2021/08/01 02:52:38;;;;;;;;;;;15.50;83.50;;;;;;4995526;28;20289;-86
2021/08/01 02:55:05;;;;;;;;;;;15.50;83.50;;;;;;5010513;28;19917;-86
2021/08/01 02:57:32;;;;;;;;;;;15.50;83.50;;;;;;5013322;28;19909;-86
2021/08/01 03:00:00;;;;;;;;;;;15.40;83.30;;;;;;5013700;28;20273;-85
2021/08/01 03:02:25;;;;;;;;;;;15.30;83.50;;;;;;4995807;28;19909;-86
2021/08/01 03:04:51;;;;;;;;;;;15.30;84.00;;;;;;4995878;28;19931;-86
2021/08/01 03:07:17;;;;;;;;;;;15.30;84.30;;;;;;5013670;28;19905;-85
2021/08/01 03:09:43;;;;;;;;;;;15.40;84.60;;;;;;4992297;28;19905;-88
2021/08/01 03:12:09;;;;;;;;;;;15.50;85.50;;;;;;4995862;28;20004;-85
2021/08/01 03:14:34;;;;;;;;;;;15.50;85.50;;;;;;4992987;28;19909;-86
2021/08/01 03:17:00;;;;;;;;;;;15.50;85.40;;;;;;5013271;28;20382;-86
2021/08/01 03:19:25;;;;;;;;;;;15.60;85.20;;;;;;4995778;28;19944;-86
2021/08/01 03:21:51;;;;;;;;;;;15.60;85.00;;;;;;5013752;28;19952;-84
2021/08/01 03:24:16;;;;;;;;;;;15.60;84.80;;;;;;5013161;28;19910;-85
2021/08/01 03:26:42;;;;;;;;;;;15.60;84.00;;;;;;4995529;28;19917;-85
2021/08/01 03:29:07;;;;;;;;;;;15.50;83.70;;;;;;5013335;28;19932;-85
2021/08/01 03:31:33;;;;;;;;;;;15.40;83.50;;;;;;4995682;28;19952;-85
2021/08/01 03:33:58;;;;;;;;;;;15.40;83.60;;;;;;5013679;28;19960;-84
2021/08/01 03:36:24;;;;;;;;;;;15.30;83.40;;;;;;5012879;28;20430;-85
2021/08/01 03:38:49;;;;;;;;;;;15.30;83.80;;;;;;5013126;28;20008;-86
2021/08/01 03:41:29;;;;;;;;;;;15.20;83.70;;;;;;5104557;27;19918;-86
2021/08/01 03:43:55;;;;;;;;;;;15.10;83.80;;;;;;5123702;27;19916;-87
2021/08/01 03:46:20;;;;;;;;;;;15.10;84.00;;;;;;5123638;28;20482;-86
2021/08/01 03:48:46;;;;;;;;;;;15.10;84.60;;;;;;5090047;28;19931;-87
2021/08/01 03:51:11;;;;;;;;;;;15.00;84.70;;;;;;5086762;28;19916;-84
2021/08/01 03:53:37;;;;;;;;;;;15.10;85.10;;;;;;5092127;28;19912;-86
2021/08/01 03:56:03;;;;;;;;;;;15.10;85.50;;;;;;5123363;27;20372;-86
2021/08/01 03:58:29;;;;;;;;;;;15.10;84.60;;;;;;5089920;28;19920;-85
2021/08/01 04:00:54;;;;;;;;;;;15.10;84.40;;;;;;5089837;28;19916;-85
2021/08/01 04:03:20;;;;;;;;;;;15.00;84.50;;;;;;5090425;28;19912;-85
2021/08/01 04:05:45;;;;;;;;;;;15.00;84.40;;;;;;5089596;28;19913;-86
2021/08/01 04:08:11;;;;;;;;;;;14.90;84.50;;;;;;5090455;28;19912;-85
2021/08/01 04:10:36;;;;;;;;;;;15.00;84.60;;;;;;5090366;28;19919;-86
2021/08/01 04:13:02;;;;;;;;;;;14.90;84.80;;;;;;5089583;28;19908;-85
2021/08/01 04:15:28;;;;;;;;;;;14.90;84.60;;;;;;5090071;28;19919;-85
2021/08/01 04:17:53;;;;;;;;;;;14.80;84.80;;;;;;5090169;28;20010;-85
2021/08/01 04:20:19;;;;;;;;;;;14.80;84.60;;;;;;5089635;28;20009;-84
2021/08/01 04:22:44;;;;;;;;;;;14.70;84.70;;;;;;5089987;28;19918;-86
2021/08/01 04:25:10;;;;;;;;;;;14.70;85.00;;;;;;5087861;28;19954;-85
2021/08/01 04:27:35;;;;;;;;;;;14.70;84.80;;;;;;5088914;28;20308;-86
2021/08/01 04:30:01;;;;;;;;;;;14.60;85.00;;;;;;5089513;28;20360;-84
2021/08/01 04:32:27;;;;;;;;;;;14.60;84.80;;;;;;5084041;28;19913;-84
2021/08/01 04:34:52;;;;;;;;;;;14.60;85.00;;;;;;5089994;28;19978;-85
2021/08/01 04:37:18;;;;;;;;;;;14.60;85.40;;;;;;5089463;28;19913;-84
2021/08/01 04:39:43;;;;;;;;;;;14.60;85.10;;;;;;5087786;28;19927;-84
2021/08/01 04:42:09;;;;;;;;;;;14.60;85.00;;;;;;5089690;28;19912;-84
2021/08/01 04:44:34;;;;;;;;;;;14.50;84.90;;;;;;5122358;27;19912;-84
2021/08/01 04:47:00;;;;;;;;;;;14.50;85.10;;;;;;5119892;27;19948;-85
2021/08/01 04:49:25;;;;;;;;;;;14.50;85.80;;;;;;5082965;28;20404;-84
2021/08/01 04:51:51;;;;;;;;;;;14.50;85.10;;;;;;5079663;28;19912;-85
2021/08/01 04:54:16;;;;;;;;;;;14.50;85.60;;;;;;5070213;28;20311;-88
2021/08/01 04:56:42;;;;;;;;;;;14.50;85.50;;;;;;5075643;28;20284;-85
2021/08/01 04:59:08;;;;;;;;;;;14.50;85.70;;;;;;5075878;28;19913;-85
2021/08/01 05:01:33;;;;;;;;;;;14.50;86.50;;;;;;5076006;28;20390;-85
2021/08/01 05:03:59;;;;;;;;;;;14.50;85.50;;;;;;5073525;28;19908;-86
2021/08/01 05:06:24;;;;;;;;;;;14.50;85.50;;;;;;5086919;28;19912;-86
2021/08/01 05:08:49;;;;;;;;;;;14.50;85.60;;;;;;5075396;28;19913;-85
2021/08/01 05:11:15;;;;;;;;;;;14.50;85.60;;;;;;5076991;28;19913;-86
2021/08/01 05:13:40;;;;;;;;;;;14.50;85.50;;;;;;5087071;28;19959;-85
2021/08/01 05:16:06;;;;;;;;;;;14.50;85.50;;;;;;5074497;28;20003;-86
2021/08/01 05:18:31;;;;;;;;;;;14.50;85.50;;;;;;5075357;28;19999;-83
2021/08/01 05:20:57;;;;;;;;;;;14.60;86.10;;;;;;5069722;28;20380;-83
2021/08/01 05:23:22;;;;;;;;;;;14.60;85.70;;;;;;5074384;28;19913;-84
2021/08/01 05:25:48;;;;;;;;;;;14.60;85.80;;;;;;5085428;28;19908;-83
2021/08/01 05:28:14;;;;;;;;;;;14.60;85.80;;;;;;5073424;28;19920;-82
2021/08/01 05:30:39;;;;;;;;;;;14.70;85.60;;;;;;5074023;28;19916;-83
2021/08/01 05:33:05;;;;;;;;;;;14.70;85.60;;;;;;5075273;28;19935;-85
2021/08/01 05:35:31;;;;;;;;;;;14.70;85.60;;;;;;5075285;28;19913;-85
2021/08/01 05:37:57;;;;;;;;;;;14.80;85.90;;;;;;5089317;28;19917;-85
2021/08/01 05:40:22;;;;;;;;;;;14.80;85.50;;;;;;5067271;28;19920;-85
2021/08/01 05:42:48;;;;;;;;;;;14.80;85.70;;;;;;5076223;28;19999;-85
2021/08/01 05:45:13;;;;;;;;;;;14.80;85.70;;;;;;5075005;28;19916;-85
2021/08/01 05:47:39;;;;;;;;;;;14.90;85.80;;;;;;5086270;28;19957;-85
2021/08/01 05:50:04;;;;;;;;;;;14.90;85.50;;;;;;5071467;28;19970;-86
2021/08/01 05:52:30;;;;;;;;;;;15.00;85.70;;;;;;5075016;28;19935;-87
2021/08/01 05:54:55;;;;;;;;;;;15.00;85.50;;;;;;5074133;28;20265;-85
2021/08/01 05:57:21;;;;;;;;;;;15.00;85.60;;;;;;5086173;28;19916;-86
2021/08/01 05:59:46;;;;;;;;;;;15.10;85.60;;;;;;5075705;28;20388;-86
2021/08/01 06:02:12;;;;;;;;;;;15.10;85.60;;;;;;5068342;28;20262;-86
2021/08/01 06:04:38;;;;;;;;;;;15.20;85.80;;;;;;5073575;28;19912;-87
2021/08/01 06:07:03;;;;;;;;;;;15.30;85.70;;;;;;5106605;28;19939;-86
2021/08/01 06:09:29;;;;;;;;;;;15.40;86.00;;;;;;5072740;28;19912;-86
2021/08/01 06:11:55;;;;;;;;;;;15.50;86.00;;;;;;5072670;28;20005;-86
2021/08/01 06:14:20;;;;;;;;;;;15.60;85.80;;;;;;5074298;28;19967;-87
2021/08/01 06:16:46;;;;;;;;;;;15.60;85.00;;;;;;5079287;28;20388;-88
2021/08/01 06:19:11;;;;;;;;;;;15.60;84.20;;;;;;5073494;28;19966;-86
2021/08/01 06:21:37;;;;;;;;;;;15.60;84.40;;;;;;5073195;28;19916;-87
2021/08/01 06:24:02;;;;;;;;;;;15.60;84.70;;;;;;5073979;28;19913;-85
2021/08/01 06:26:28;;;;;;;;;;;15.70;84.90;;;;;;5068453;28;19916;-85
2021/08/01 06:28:53;;;;;;;;;;;15.70;84.70;;;;;;5074196;28;19919;-85
2021/08/01 06:31:19;;;;;;;;;;;15.80;85.00;;;;;;5072297;28;19916;-85
2021/08/01 06:33:45;;;;;;;;;;;15.80;84.00;;;;;;5073336;28;19999;-86
2021/08/01 06:36:11;;;;;;;;;;;15.80;83.80;;;;;;5075287;28;19952;-84
2021/08/01 06:38:37;;;;;;;;;;;15.70;84.10;;;;;;5079817;28;19936;-85
2021/08/01 06:41:03;;;;;;;;;;;15.80;84.50;;;;;;5073762;28;19925;-84
2021/08/01 06:43:29;;;;;;;;;;;15.80;84.60;;;;;;5073169;28;20018;-83
2021/08/01 06:45:54;;;;;;;;;;;15.90;84.00;;;;;;5065872;28;19920;-84
2021/08/01 06:48:20;;;;;;;;;;;15.80;84.10;;;;;;5072110;28;19912;-85
2021/08/01 06:50:46;;;;;;;;;;;15.90;84.50;;;;;;5073503;28;20335;-85
2021/08/01 06:53:11;;;;;;;;;;;16.00;84.50;;;;;;5080872;28;20358;-84
2021/08/01 06:55:37;;;;;;;;;;;16.00;84.00;;;;;;5073509;28;19919;-87
2021/08/01 06:58:02;;;;;;;;;;;16.00;83.90;;;;;;5101093;28;19920;-85
2021/08/01 07:00:28;;;;;;;;;;;16.00;84.20;;;;;;5073203;28;20304;-87
2021/08/01 07:02:53;;;;;;;;;;;16.10;84.30;;;;;;5070084;28;19919;-85
2021/08/01 07:05:19;;;;;;;;;;;16.10;84.40;;;;;;5069769;28;19920;-86
2021/08/01 07:07:45;;;;;;;;;;;16.20;84.10;;;;;;5073231;28;20311;-85
2021/08/01 07:10:10;;;;;;;;;;;16.10;82.90;;;;;;5072864;28;19912;-84
2021/08/01 07:12:38;;;;;;;;;;;16.10;83.60;;;;;;5073150;28;19919;-79
2021/08/01 07:15:04;;;;;;;;;;;16.10;83.20;;;;;;5071901;28;19912;-79
2021/08/01 07:17:30;;;;;;;;;;;16.00;83.90;;;;;;5073866;28;19920;-79
2021/08/01 07:19:55;;;;;;;;;;;16.10;84.30;;;;;;5070702;28;19923;-75
2021/08/01 07:22:21;;;;;;;;;;;16.10;83.70;;;;;;5071650;28;19909;-76
2021/08/01 07:24:46;;;;;;;;;;;16.10;83.70;;;;;;5070304;28;19909;-76
2021/08/01 07:27:12;;;;;;;;;;;16.10;84.10;;;;;;5073173;28;20338;-78
2021/08/01 07:29:37;;;;;;;;;;;16.20;84.30;;;;;;5072766;28;19959;-76
2021/08/01 07:32:03;;;;;;;;;;;16.30;84.10;;;;;;5081217;28;20000;-76
2021/08/01 07:34:28;;;;;;;;;;;16.30;84.10;;;;;;5068788;28;19948;-77
2021/08/01 07:36:54;;;;;;;;;;;16.30;83.80;;;;;;5067041;28;20266;-76
2021/08/01 07:39:19;;;;;;;;;;;16.30;83.90;;;;;;5068471;28;20410;-76
2021/08/01 07:41:45;;;;;;;;;;;16.30;83.80;;;;;;5071085;28;20375;-75
2021/08/01 07:44:11;;;;;;;;;;;16.40;84.10;;;;;;5071361;28;19913;-75
2021/08/01 07:46:36;;;;;;;;;;;16.50;83.90;;;;;;5073021;28;19966;-76
2021/08/01 07:49:02;;;;;;;;;;;16.60;83.90;;;;;;5072467;28;20284;-82
2021/08/01 07:51:27;;;;;;;;;;;16.60;83.10;;;;;;5071747;28;19913;-73
2021/08/01 07:53:52;;;;;;;;;;;16.60;82.60;;;;;;5074144;28;19967;-73
2021/08/01 07:56:18;;;;;;;;;;;16.60;82.80;;;;;;5074205;28;20384;-73
2021/08/01 07:58:43;;;;;;;;;;;16.50;82.70;;;;;;5072400;28;20149;-73
2021/08/01 08:01:09;;;;;;;;;;;16.60;82.70;;;;;;5062862;28;19936;-74
2021/08/01 08:03:34;;;;;;;;;;;16.60;82.80;;;;;;5063299;28;20468;-75
2021/08/01 08:06:05;;;;;;;;;;;16.70;83.10;;;;;;5063899;28;19921;-74
2021/08/01 08:08:31;;;;;;;;;;;16.80;83.60;;;;;;5065487;28;19948;-74
2021/08/01 08:10:56;;;;;;;;;;;16.90;83.60;;;;;;5060645;28;20002;-75
2021/08/01 08:13:22;;;;;;;;;;;17.10;82.50;;;;;;5056680;28;19935;-75
2021/08/01 08:15:47;;;;;;;;;;;17.20;83.30;;;;;;5071036;28;19916;-79
2021/08/01 08:18:13;;;;;;;;;;;17.50;81.90;;;;;;5071580;28;19948;-74
2021/08/01 08:20:38;;;;;;;;;;;17.60;81.10;;;;;;5072259;28;19921;-75
2021/08/01 08:23:04;;;;;;;;;;;17.70;80.10;;;;;;5072684;28;19912;-75
2021/08/01 08:25:29;;;;;;;;;;;17.80;79.00;;;;;;5072459;28;19982;-75
2021/08/01 08:27:55;;;;;;;;;;;17.80;79.30;;;;;;5073879;28;19909;-74
2021/08/01 08:30:20;;;;;;;;;;;17.90;77.90;;;;;;5076428;28;19956;-74
2021/08/01 08:32:46;;;;;;;;;;;17.80;78.60;;;;;;5076401;28;19977;-74
2021/08/01 08:35:11;;;;;;;;;;;17.80;77.50;;;;;;5076310;28;20347;-75
2021/08/01 08:37:44;;;;;;;;;;;17.90;77.60;;;;;;5075376;28;19913;-75
2021/08/01 08:40:10;;;;;;;;;;;17.90;77.60;;;;;;5071220;28;20011;-90
2021/08/01 08:42:35;;;;;;;;;;;18.10;80.20;;;;;;5075607;28;19970;-87
2021/08/01 08:45:01;;;;;;;;;;;18.40;79.60;;;;;;5075905;28;20000;-87
2021/08/01 08:47:28;;;;;;;;;;;18.60;80.10;;;;;;5088115;28;19913;-87
2021/08/01 08:49:55;;;;;;;;;;;18.80;80.30;;;;;;5076226;28;19912;-86
2021/08/01 08:52:20;;;;;;;;;;;18.90;78.90;;;;;;5076244;28;20351;-86
2021/08/01 08:54:48;;;;;;;;;;;19.10;80.00;;;;;;5074394;28;19908;-87
2021/08/01 08:57:26;;;;;;;;;;;19.30;78.00;;;;;;5076153;28;19935;-86
2021/08/01 08:59:54;;;;;;;;;;;19.20;76.90;;;;;;5071126;28;19924;-88
2021/08/01 09:02:19;;;;;;;;;;;19.10;76.20;;;;;;5109859;27;19917;-87
2021/08/01 09:04:45;;;;;;;;;;;18.90;76.50;;;;;;5092181;28;20467;-85
2021/08/01 09:07:11;;;;;;;;;;;18.90;78.20;;;;;;5075756;28;20304;-85
2021/08/01 09:09:36;;;;;;;;;;;19.10;77.80;;;;;;5077106;28;19909;-86
2021/08/01 09:12:02;;;;;;;;;;;19.20;78.90;;;;;;5108658;27;19961;-87
2021/08/01 09:14:28;;;;;;;;;;;19.40;77.70;;;;;;5076557;28;19913;-86
2021/08/01 09:16:53;;;;;;;;;;;19.20;75.60;;;;;;5076198;28;19962;-88
2021/08/01 09:19:24;;;;;;;;;;;19.20;76.90;;;;;;5076790;28;19919;-87
2021/08/01 09:21:49;;;;;;;;;;;19.30;76.20;;;;;;5073243;28;19999;-88
2021/08/01 09:24:15;;;;;;;;;;;19.40;77.90;;;;;;5075529;28;20007;-85
2021/08/01 09:26:48;;;;;;;;;;;19.40;75.80;;;;;;5065773;28;19920;-86
2021/08/01 09:29:14;;;;;;;;;;;19.40;76.40;;;;;;5065029;28;19960;-81
2021/08/01 09:31:41;;;;;;;;;;;19.40;75.50;;;;;;5075318;28;19912;-75
2021/08/01 09:34:20;;;;;;;;;;;19.40;74.50;;;;;;5074716;28;19912;-77
2021/08/01 09:36:54;;;;;;;;;;;19.40;75.40;;;;;;5076486;28;19916;-76
2021/08/01 09:39:21;;;;;;;;;;;19.50;75.20;;;;;;5074476;28;19913;-75
2021/08/01 09:41:50;;;;;;;;;;;19.50;74.10;;;;;;5075137;28;19916;-76
2021/08/01 09:44:18;;;;;;;;;;;19.40;73.20;;;;;;5075115;28;20395;-76
2021/08/01 09:46:44;;;;;;;;;;;19.20;73.30;;;;;;5090996;28;19995;-77
2021/08/01 09:49:20;;;;;;;;;;;19.00;72.90;;;;;;5072891;28;19999;-76
2021/08/01 09:51:48;;;;;;;;;;;18.90;74.30;;;;;;5076220;28;19908;-77
2021/08/01 09:54:14;;;;;;;;;;;18.80;73.00;;;;;;5074527;28;19919;-77
2021/08/01 09:56:58;;;;;;;;;;;18.90;72.90;;;;;;5074765;28;19919;-75
2021/08/01 09:59:27;;;;;;;;;;;19.00;72.00;;;;;;5074651;28;19913;-76
2021/08/01 10:01:54;;;;;;;;;;;18.90;70.80;;;;;;5074764;28;20014;-76
2021/08/01 10:04:23;;;;;;;;;;;18.70;70.70;;;;;;5074511;28;19908;-76
2021/08/01 10:06:59;;;;;;;;;;;18.70;72.10;;;;;;5072027;28;19909;-77
2021/08/01 10:09:26;;;;;;;;;;;18.80;72.50;;;;;;5074412;28;19939;-77
2021/08/01 10:11:53;;;;;;;;;;;19.00;72.40;;;;;;5074543;28;19920;-76
2021/08/01 10:14:18;;;;;;;;;;;19.20;72.60;;;;;;5074533;28;19912;-76
2021/08/01 10:16:44;;;;;;;;;;;19.50;73.80;;;;;;5074556;28;19919;-77
2021/08/01 10:19:09;;;;;;;;;;;19.80;73.00;;;;;;5073605;28;20372;-77
2021/08/01 10:21:35;;;;;;;;;;;20.30;74.40;;;;;;5073685;28;20380;-76
2021/08/01 10:24:01;;;;;;;;;;;20.60;73.30;;;;;;5074152;28;19912;-86
2021/08/01 10:26:31;;;;;;;;;;;20.80;72.60;;;;;;5074207;28;19919;-79
2021/08/01 10:28:57;;;;;;;;;;;20.80;68.40;;;;;;5074387;28;20269;-80
2021/08/01 10:31:29;;;;;;;;;;;20.80;67.10;;;;;;5074782;28;19912;-81
2021/08/01 10:34:18;;;;;;;;;;;20.70;67.40;;;;;;5107773;28;19961;-79
2021/08/01 10:36:47;;;;;;;;;;;20.70;68.90;;;;;;5068943;28;19935;-79
2021/08/01 10:39:15;;;;;;;;;;;20.80;69.30;;;;;;5073754;28;19963;-79
2021/08/01 10:41:41;;;;;;;;;;;20.70;66.80;;;;;;5069446;28;19974;-80
2021/08/01 10:44:10;;;;;;;;;;;21.00;70.40;;;;;;5102046;28;19916;-79
2021/08/01 10:46:37;;;;;;;;;;;21.20;71.10;;;;;;5056346;28;19923;-80
2021/08/01 10:49:03;;;;;;;;;;;21.30;69.60;;;;;;5072489;28;19912;-79
2021/08/01 10:51:29;;;;;;;;;;;21.30;68.20;;;;;;5069012;28;20273;-79
2021/08/01 10:54:15;;;;;;;;;;;21.10;68.50;;;;;;5069197;28;19919;-78
2021/08/01 10:56:40;;;;;;;;;;;20.60;65.80;;;;;;5051173;28;20381;-79
2021/08/01 10:59:06;;;;;;;;;;;20.20;67.60;;;;;;5051070;28;19919;-80
2021/08/01 11:01:51;;;;;;;;;;;19.90;66.60;;;;;;5051250;28;19920;-79
2021/08/01 11:04:31;;;;;;;;;;;19.70;68.30;;;;;;5047896;28;19909;-78
2021/08/01 11:06:56;;;;;;;;;;;19.50;68.90;;;;;;5049297;28;19935;-82
2021/08/01 11:09:22;;;;;;;;;;;19.50;70.40;;;;;;5037612;28;19943;-79
2021/08/01 11:12:07;;;;;;;;;;;19.60;71.10;;;;;;5050559;28;19971;-78
2021/08/01 11:14:45;;;;;;;;;;;19.70;69.50;;;;;;5050751;28;19963;-77
2021/08/01 11:17:10;;;;;;;;;;;19.60;69.80;;;;;;5050889;28;19974;-80
2021/08/01 11:19:36;;;;;;;;;;;19.80;69.00;;;;;;5051822;28;20008;-78
2021/08/01 11:22:02;;;;;;;;;;;20.00;69.60;;;;;;5050287;28;20593;-79
2021/08/01 11:24:28;;;;;;;;;;;20.20;68.80;;;;;;5036798;28;19948;-80
2021/08/01 11:27:09;;;;;;;;;;;20.30;68.30;;;;;;5050672;28;19960;-79
2021/08/01 11:29:53;;;;;;;;;;;20.60;68.40;;;;;;5035360;28;20404;-80
2021/08/01 11:32:18;;;;;;;;;;;20.60;68.70;;;;;;5050689;28;19920;-80
2021/08/01 11:34:45;;;;;;;;;;;20.80;68.30;;;;;;5064590;28;19912;-79
2021/08/01 11:37:17;;;;;;;;;;;20.80;66.70;;;;;;5071743;28;19912;-80
2021/08/01 11:39:53;;;;;;;;;;;20.80;68.20;;;;;;5071980;28;20293;-79
2021/08/01 11:42:25;;;;;;;;;;;20.80;68.00;;;;;;5070099;28;20284;-81
2021/08/01 11:44:55;;;;;;;;;;;20.80;67.60;;;;;;5068506;28;19956;-83
2021/08/01 11:47:21;;;;;;;;;;;20.90;68.40;;;;;;5068756;28;19958;-80
2021/08/01 11:49:48;;;;;;;;;;;21.00;65.90;;;;;;5069607;28;19912;-84
2021/08/01 11:52:21;;;;;;;;;;;21.10;65.70;;;;;;5071065;28;20384;-83
2021/08/01 11:54:52;;;;;;;;;;;21.30;65.40;;;;;;5072013;28;20373;-84
2021/08/01 11:57:17;;;;;;;;;;;21.40;66.20;;;;;;5068560;28;19918;-84
2021/08/01 11:59:43;;;;;;;;;;;21.50;63.80;;;;;;5069938;28;19921;-81
2021/08/01 12:02:10;;;;;;;;;;;21.70;64.90;;;;;;5102977;28;19923;-82
2021/08/01 12:04:36;;;;;;;;;;;21.90;63.70;;;;;;5058165;28;20285;-81
2021/08/01 12:07:02;;;;;;;;;;;22.10;64.10;;;;;;5074784;28;19909;-82
2021/08/01 12:09:29;;;;;;;;;;;22.20;65.10;;;;;;5072561;28;19946;-81
2021/08/01 12:11:58;;;;;;;;;;;22.30;64.80;;;;;;5074586;28;19913;-81
2021/08/01 12:14:27;;;;;;;;;;;22.20;61.50;;;;;;5072100;28;19957;-81
2021/08/01 12:16:56;;;;;;;;;;;22.10;64.20;;;;;;5073977;28;19978;-80
2021/08/01 12:19:22;;;;;;;;;;;22.30;62.30;;;;;;5073835;28;19961;-81
2021/08/01 12:21:49;;;;;;;;;;;22.50;62.60;;;;;;5073854;28;19908;-83
2021/08/01 12:24:27;;;;;;;;;;;22.60;63.10;;;;;;5073596;28;20281;-83
2021/08/01 12:26:56;;;;;;;;;;;22.60;60.10;;;;;;5071947;28;19917;-84
2021/08/01 12:29:35;;;;;;;;;;;22.30;59.60;;;;;;5073661;28;19999;-84
2021/08/01 12:32:15;;;;;;;;;;;22.40;59.80;;;;;;5105968;28;19959;-85
2021/08/01 12:34:40;;;;;;;;;;;22.60;60.90;;;;;;5067057;28;19913;-83
2021/08/01 12:37:07;;;;;;;;;;;22.60;61.60;;;;;;5108127;28;19909;-84
2021/08/01 12:39:32;;;;;;;;;;;22.50;58.80;;;;;;5073115;28;20407;-84
2021/08/01 12:42:01;;;;;;;;;;;22.60;60.20;;;;;;5058131;28;19917;-84
2021/08/01 12:44:26;;;;;;;;;;;22.60;58.80;;;;;;5054566;28;20270;-84
2021/08/01 12:47:03;;;;;;;;;;;22.70;57.50;;;;;;5054564;28;19924;-84
2021/08/01 12:49:29;;;;;;;;;;;22.70;59.10;;;;;;5053853;28;20389;-83
2021/08/01 12:51:54;;;;;;;;;;;22.70;58.40;;;;;;5055227;28;19952;-84
2021/08/01 12:54:20;;;;;;;;;;;22.70;59.40;;;;;;5053235;28;19913;-84
2021/08/01 12:57:05;;;;;;;;;;;22.80;58.10;;;;;;5053658;28;20396;-83
2021/08/01 12:59:30;;;;;;;;;;;22.60;57.60;;;;;;5060031;28;19928;-84
2021/08/01 13:01:56;;;;;;;;;;;22.50;59.00;;;;;;5051106;28;19959;-84
2021/08/01 13:04:22;;;;;;;;;;;22.30;56.60;;;;;;5036093;28;20331;-81
2021/08/01 13:06:47;;;;;;;;;;;22.10;59.00;;;;;;5035007;28;19916;-81
2021/08/01 13:09:19;;;;;;;;;;;22.30;60.40;;;;;;5051362;28;19913;-81
2021/08/01 13:11:44;;;;;;;;;;;22.30;59.60;;;;;;5036099;28;19967;-81
2021/08/01 13:14:10;;;;;;;;;;;22.40;60.70;;;;;;5051101;28;19913;-81
2021/08/01 13:16:46;;;;;;;;;;;22.60;59.80;;;;;;5051747;28;19971;-81
2021/08/01 13:19:12;;;;;;;;;;;22.50;59.70;;;;;;5050669;28;19915;-82
2021/08/01 13:21:37;;;;;;;;;;;22.40;59.30;;;;;;5052298;28;19917;-81
2021/08/01 13:24:10;;;;;;;;;;;22.20;58.90;;;;;;5054188;28;19917;-81
2021/08/01 13:26:35;;;;;;;;;;;22.00;58.20;;;;;;5052055;28;19919;-84
2021/08/01 13:29:03;;;;;;;;;;;21.70;57.80;;;;;;5067109;28;20296;-84
2021/08/01 13:31:38;;;;;;;;;;;21.50;58.40;;;;;;5052014;28;19963;-83
2021/08/01 13:34:06;;;;;;;;;;;21.30;60.00;;;;;;5032459;28;20335;-83
2021/08/01 13:36:49;;;;;;;;;;;21.10;59.90;;;;;;5050795;28;19948;-84
2021/08/01 13:39:16;;;;;;;;;;;21.00;60.80;;;;;;5035676;28;20377;-83
2021/08/01 13:41:42;;;;;;;;;;;20.70;60.80;;;;;;5071211;28;20035;-81
2021/08/01 13:44:11;;;;;;;;;;;20.70;61.90;;;;;;5070729;28;20003;-80
2021/08/01 13:46:37;;;;;;;;;;;20.60;61.90;;;;;;5054503;28;20003;-81
2021/08/01 13:49:03;;;;;;;;;;;20.50;61.80;;;;;;5072605;28;19948;-81
2021/08/01 13:51:30;;;;;;;;;;;20.60;62.80;;;;;;5072568;28;20003;-81
2021/08/01 13:53:55;;;;;;;;;;;21.00;64.60;;;;;;5071596;28;19913;-81
2021/08/01 13:56:21;;;;;;;;;;;21.30;62.00;;;;;;5071828;28;19919;-81
2021/08/01 13:58:46;;;;;;;;;;;21.30;61.60;;;;;;5072193;28;19935;-81
2021/08/01 14:01:11;;;;;;;;;;;21.30;62.20;;;;;;5072627;28;19927;-80
2021/08/01 14:03:38;;;;;;;;;;;21.40;63.10;;;;;;5071274;28;19998;-79
2021/08/01 14:06:04;;;;;;;;;;;21.50;62.80;;;;;;5070436;28;20391;-79
2021/08/01 14:08:29;;;;;;;;;;;21.50;62.10;;;;;;5069833;28;19913;-79
2021/08/01 14:10:56;;;;;;;;;;;21.40;62.70;;;;;;5071944;28;20318;-81
2021/08/01 14:13:22;;;;;;;;;;;21.30;62.20;;;;;;5072403;28;19915;-79
2021/08/01 14:15:47;;;;;;;;;;;21.20;62.20;;;;;;5071317;28;19908;-79